createdAt,value
2022-07-25T00:02:04.938Z,99.90
2022-07-25T00:04:35.428Z,99.90
2022-07-25T00:07:03.864Z,99.90
2022-07-25T00:09:31.742Z,99.90
2022-07-25T00:11:59.627Z,99.90
2022-07-25T00:14:27.554Z,99.90
2022-07-25T00:16:58.468Z,99.90
2022-07-25T00:19:26.324Z,99.90
2022-07-25T00:21:54.158Z,99.90
2022-07-25T00:24:22.066Z,99.90
2022-07-25T00:26:49.875Z,99.90
2022-07-25T00:29:17.751Z,99.90
2022-07-25T00:31:45.594Z,99.90
2022-07-25T00:34:13.725Z,99.90
2022-07-25T00:36:41.622Z,99.90
2022-07-25T00:39:09.495Z,99.90
2022-07-25T00:41:37.463Z,99.90
2022-07-25T00:44:06.056Z,99.90
2022-07-25T00:46:34.440Z,99.90
2022-07-25T00:49:02.340Z,99.90
2022-07-25T00:51:30.212Z,99.90
2022-07-25T00:53:58.489Z,99.90
2022-07-25T00:56:26.347Z,99.90
2022-07-25T00:58:54.146Z,99.90
2022-07-25T01:01:22.087Z,99.90
2022-07-25T01:03:50.000Z,99.90
2022-07-25T01:06:17.931Z,99.90
2022-07-25T01:08:45.816Z,99.90
2022-07-25T01:11:13.676Z,99.90
2022-07-25T01:13:41.584Z,99.90
2022-07-25T01:16:09.574Z,99.90
2022-07-25T01:18:38.160Z,99.90
2022-07-25T01:21:06.357Z,99.90
2022-07-25T01:23:34.181Z,99.90
2022-07-25T01:26:02.049Z,99.90
2022-07-25T01:28:29.941Z,99.90
2022-07-25T01:30:58.627Z,99.90
2022-07-25T01:33:26.640Z,99.90
2022-07-25T01:35:54.455Z,99.90
2022-07-25T01:38:22.397Z,99.90
2022-07-25T01:40:50.219Z,99.90
2022-07-25T01:43:18.100Z,99.90
2022-07-25T01:45:45.971Z,99.90
2022-07-25T01:48:13.906Z,99.90
2022-07-25T01:50:41.704Z,99.90
2022-07-25T01:53:10.299Z,99.90
2022-07-25T01:55:38.122Z,99.90
2022-07-25T01:58:06.360Z,99.90
2022-07-25T02:00:35.991Z,99.90
2022-07-25T02:03:22.592Z,99.90
2022-07-25T02:05:50.469Z,99.90
2022-07-25T02:08:18.422Z,99.90
2022-07-25T02:10:46.288Z,99.90
2022-07-25T02:13:14.258Z,99.90
2022-07-25T02:15:42.124Z,99.90
2022-07-25T02:18:09.954Z,99.90
2022-07-25T02:20:37.773Z,99.90
2022-07-25T02:23:06.238Z,99.90
2022-07-25T02:25:34.103Z,99.90
2022-07-25T02:28:01.944Z,99.90
2022-07-25T02:30:29.913Z,99.90
2022-07-25T02:32:57.766Z,99.90
2022-07-25T02:35:25.831Z,99.90
2022-07-25T02:37:53.652Z,99.90
2022-07-25T02:40:21.738Z,99.90
2022-07-25T02:42:49.635Z,99.90
2022-07-25T02:45:17.559Z,99.90
2022-07-25T02:47:45.414Z,99.90
2022-07-25T02:50:14.987Z,99.90
2022-07-25T02:52:43.844Z,99.90
2022-07-25T02:55:12.565Z,99.90
2022-07-25T02:57:40.446Z,99.90
2022-07-25T03:00:08.764Z,99.90
2022-07-25T03:02:36.682Z,99.90
2022-07-25T03:05:07.279Z,99.90
2022-07-25T03:07:35.542Z,99.90
2022-07-25T03:10:03.573Z,99.90
2022-07-25T03:12:39.446Z,99.90
2022-07-25T03:15:07.945Z,99.90
2022-07-25T03:17:35.823Z,99.90
2022-07-25T03:20:03.773Z,99.90
2022-07-25T03:22:31.705Z,99.90
2022-07-25T03:24:59.810Z,99.90
2022-07-25T03:27:28.837Z,99.90
2022-07-25T03:29:56.745Z,99.90
2022-07-25T03:32:24.886Z,99.90
2022-07-25T03:34:52.772Z,99.90
2022-07-25T03:37:20.733Z,99.90
2022-07-25T03:39:48.684Z,99.90
2022-07-25T03:42:16.576Z,99.90
2022-07-25T03:44:44.421Z,99.90
2022-07-25T03:47:20.634Z,99.90
2022-07-25T03:49:51.769Z,99.90
2022-07-25T03:52:19.616Z,99.90
2022-07-25T03:54:50.255Z,99.90
2022-07-25T03:57:21.949Z,99.90
2022-07-25T03:59:49.792Z,99.90
2022-07-25T04:02:17.756Z,99.90
2022-07-25T04:04:45.673Z,99.90
2022-07-25T04:07:13.533Z,99.90
2022-07-25T04:09:41.431Z,99.90
2022-07-25T04:12:09.287Z,99.90
2022-07-25T04:14:37.176Z,99.90
2022-07-25T04:17:05.652Z,99.90
2022-07-25T04:19:34.192Z,99.90
2022-07-25T04:22:02.078Z,99.90
2022-07-25T04:24:29.874Z,99.90
2022-07-25T04:26:57.718Z,99.90
2022-07-25T04:29:25.580Z,99.90
2022-07-25T04:31:53.527Z,99.90
2022-07-25T04:34:21.623Z,99.90
2022-07-25T04:36:49.426Z,99.90
2022-07-25T04:39:17.470Z,99.90
2022-07-25T04:41:45.322Z,99.90
2022-07-25T04:44:13.135Z,99.90
2022-07-25T04:46:41.490Z,99.90
2022-07-25T04:49:09.455Z,99.90
2022-07-25T04:51:37.344Z,99.90
2022-07-25T04:54:05.856Z,99.90
2022-07-25T04:56:33.910Z,99.90
2022-07-25T04:59:06.751Z,99.90
2022-07-25T05:01:35.767Z,99.90
2022-07-25T05:04:03.893Z,99.90
2022-07-25T05:06:32.188Z,99.90
2022-07-25T05:09:00.073Z,99.90
2022-07-25T05:11:28.088Z,99.90
2022-07-25T05:13:55.957Z,99.90
2022-07-25T05:16:23.895Z,99.90
2022-07-25T05:18:51.850Z,99.90
2022-07-25T05:21:19.705Z,99.90
2022-07-25T05:23:47.712Z,99.90
2022-07-25T05:26:15.619Z,99.90
2022-07-25T05:28:43.460Z,99.90
2022-07-25T05:31:11.368Z,99.90
2022-07-25T05:33:39.307Z,99.90
2022-07-25T05:36:07.521Z,99.90
2022-07-25T05:38:35.743Z,99.90
2022-07-25T05:41:03.582Z,99.90
2022-07-25T05:43:31.477Z,99.90
2022-07-25T05:46:03.215Z,99.90
2022-07-25T05:48:31.323Z,99.90
2022-07-25T05:51:00.503Z,99.90
2022-07-25T05:53:28.338Z,99.90
2022-07-25T05:55:56.214Z,99.90
2022-07-25T05:58:29.458Z,99.90
2022-07-25T06:00:58.375Z,99.90
2022-07-25T06:03:28.043Z,99.90
2022-07-25T06:05:56.486Z,99.90
2022-07-25T06:08:25.094Z,99.90
2022-07-25T06:10:53.024Z,99.90
2022-07-25T06:13:21.003Z,99.90
2022-07-25T06:15:51.488Z,99.90
2022-07-25T06:18:19.458Z,99.90
2022-07-25T06:20:47.326Z,99.90
2022-07-25T06:23:15.421Z,99.90
2022-07-25T06:25:43.293Z,99.90
2022-07-25T06:28:18.145Z,99.90
2022-07-25T06:30:46.536Z,99.90
2022-07-25T06:33:14.427Z,99.90
2022-07-25T06:35:42.318Z,99.90
2022-07-25T06:38:10.209Z,99.90
2022-07-25T06:40:38.032Z,99.90
2022-07-25T06:43:05.867Z,99.90
2022-07-25T06:45:33.679Z,99.90
2022-07-25T06:48:01.555Z,99.90
2022-07-25T06:50:29.428Z,99.90
2022-07-25T06:52:57.272Z,99.90
2022-07-25T06:55:25.126Z,99.90
2022-07-25T06:57:53.016Z,99.90
2022-07-25T07:00:20.864Z,99.90
2022-07-25T07:02:59.530Z,99.90
2022-07-25T07:05:28.979Z,99.90
2022-07-25T07:07:57.290Z,99.90
2022-07-25T07:10:25.318Z,99.90
2022-07-25T07:13:03.420Z,99.90
2022-07-25T07:15:33.852Z,99.90
2022-07-25T07:18:02.006Z,99.90
2022-07-25T07:20:33.175Z,99.90
2022-07-25T07:23:05.696Z,99.90
2022-07-25T07:25:33.616Z,99.90
2022-07-25T07:28:01.467Z,99.90
2022-07-25T07:30:58.488Z,99.90
2022-07-25T07:33:17.404Z,99.90
2022-07-25T07:35:45.427Z,99.90
2022-07-25T07:38:13.355Z,99.90
2022-07-25T07:40:41.159Z,99.90
2022-07-25T07:43:09.106Z,99.90
2022-07-25T07:45:37.027Z,99.90
2022-07-25T07:48:05.217Z,99.90
2022-07-25T07:50:33.202Z,99.90
2022-07-25T07:53:01.255Z,99.90
2022-07-25T07:55:49.581Z,99.60
2022-07-25T07:58:17.999Z,99.30
2022-07-25T08:00:46.804Z,99.20
2022-07-25T08:03:18.182Z,98.50
2022-07-25T08:05:46.897Z,98.40
2022-07-25T08:08:15.820Z,97.90
2022-07-25T08:10:44.940Z,97.70
2022-07-25T08:13:20.255Z,97.60
2022-07-25T08:15:50.503Z,97.00
2022-07-25T08:18:19.970Z,97.00
2022-07-25T08:20:48.120Z,96.10
2022-07-25T08:23:16.162Z,96.20
2022-07-25T08:25:44.349Z,95.60
2022-07-25T08:28:12.378Z,95.00
2022-07-25T08:30:40.632Z,95.00
2022-07-25T08:33:11.728Z,94.70
2022-07-25T08:35:41.092Z,94.20
2022-07-25T08:38:09.051Z,93.50
2022-07-25T08:40:36.872Z,93.10
2022-07-25T08:43:05.506Z,93.00
2022-07-25T08:45:33.947Z,92.30
2022-07-25T08:48:01.960Z,91.80
2022-07-25T08:50:30.563Z,91.30
2022-07-25T08:53:23.101Z,90.90
2022-07-25T08:55:47.765Z,91.20
2022-07-25T08:58:16.642Z,90.40
2022-07-25T09:00:45.230Z,90.50
2022-07-25T09:03:13.415Z,90.30
2022-07-25T09:05:41.594Z,89.40
2022-07-25T09:08:11.998Z,87.90
2022-07-25T09:10:40.505Z,87.60
2022-07-25T09:13:11.599Z,88.10
2022-07-25T09:15:44.697Z,88.40
2022-07-25T09:18:17.023Z,87.60
2022-07-25T09:20:46.323Z,89.50
2022-07-25T09:23:15.403Z,85.90
2022-07-25T09:25:43.490Z,85.80
2022-07-25T09:28:12.227Z,86.20
2022-07-25T09:30:40.827Z,87.40
2022-07-25T09:33:08.676Z,85.50
2022-07-25T09:35:39.982Z,87.40
2022-07-25T09:38:08.971Z,85.10
2022-07-25T09:40:36.818Z,84.00
2022-07-25T09:43:04.940Z,83.60
2022-07-25T09:45:32.983Z,82.80
2022-07-25T09:48:02.546Z,82.50
2022-07-25T09:50:32.078Z,82.20
2022-07-25T09:53:01.782Z,81.50
2022-07-25T09:55:29.941Z,80.50
2022-07-25T09:57:57.753Z,80.40
2022-07-25T10:00:27.638Z,80.70
2022-07-25T10:03:13.782Z,80.30
2022-07-25T10:05:51.088Z,80.10
2022-07-25T10:08:22.044Z,80.30
2022-07-25T10:10:50.032Z,78.30
2022-07-25T10:13:29.345Z,78.30
2022-07-25T10:15:57.201Z,79.20
2022-07-25T10:18:26.333Z,78.40
2022-07-25T10:20:57.695Z,78.80
2022-07-25T10:23:26.714Z,77.70
2022-07-25T10:26:23.619Z,76.60
2022-07-25T10:28:52.171Z,76.20
2022-07-25T10:31:23.015Z,76.70
2022-07-25T10:34:17.374Z,74.90
2022-07-25T10:36:47.476Z,74.10
2022-07-25T10:39:19.040Z,72.10
2022-07-25T10:41:52.538Z,72.70
2022-07-25T10:44:20.533Z,73.40
2022-07-25T10:46:48.502Z,72.00
2022-07-25T10:49:23.684Z,71.90
2022-07-25T10:52:06.235Z,71.80
2022-07-25T10:54:38.137Z,71.30
2022-07-25T10:57:07.221Z,74.10
2022-07-25T10:59:36.483Z,71.40
2022-07-25T11:02:05.807Z,71.90
2022-07-25T11:04:34.426Z,71.00
2022-07-25T11:07:09.565Z,69.60
2022-07-25T11:09:40.405Z,70.30
2022-07-25T11:12:08.709Z,70.90
2022-07-25T11:14:42.435Z,70.80
2022-07-25T11:17:15.725Z,71.90
2022-07-25T11:19:44.544Z,71.10
2022-07-25T11:22:13.098Z,71.90
2022-07-25T11:24:47.808Z,71.30
2022-07-25T11:27:23.298Z,70.70
2022-07-25T11:29:51.239Z,70.60
2022-07-25T11:32:19.558Z,70.10
2022-07-25T11:34:53.559Z,68.90
2022-07-25T11:37:22.319Z,68.40
2022-07-25T11:39:50.498Z,68.40
2022-07-25T11:42:20.268Z,68.30
2022-07-25T11:44:49.551Z,67.60
2022-07-25T11:47:28.609Z,66.80
2022-07-25T11:50:00.690Z,67.30
2022-07-25T11:52:35.492Z,66.10
2022-07-25T11:55:08.019Z,67.40
2022-07-25T11:57:37.585Z,64.50
2022-07-25T12:00:09.182Z,65.50
2022-07-25T12:02:40.592Z,64.20
2022-07-25T12:05:09.790Z,64.30
2022-07-25T12:07:49.882Z,66.40
2022-07-25T12:10:17.986Z,64.10
2022-07-25T12:12:50.408Z,66.20
2022-07-25T12:15:22.621Z,65.00
2022-07-25T12:17:51.657Z,63.90
2022-07-25T12:20:23.387Z,63.80
2022-07-25T12:22:53.911Z,63.10
2022-07-25T12:25:23.632Z,64.20
2022-07-25T12:27:53.519Z,64.50
2022-07-25T12:30:21.310Z,63.80
2022-07-25T12:32:49.242Z,64.80
2022-07-25T12:35:17.133Z,64.40
2022-07-25T12:37:45.472Z,65.20
2022-07-25T12:40:16.462Z,64.00
2022-07-25T12:42:45.043Z,63.60
2022-07-25T12:45:13.937Z,62.40
2022-07-25T12:47:44.596Z,66.40
2022-07-25T12:50:12.519Z,60.70
2022-07-25T12:52:40.678Z,60.50
2022-07-25T12:55:09.771Z,61.20
2022-07-25T12:57:37.981Z,62.30
2022-07-25T13:00:06.643Z,59.70
2022-07-25T13:02:34.772Z,60.30
2022-07-25T13:05:02.610Z,60.40
2022-07-25T13:07:30.448Z,58.30
2022-07-25T13:09:58.278Z,58.10
2022-07-25T13:12:26.250Z,58.20
2022-07-25T13:14:54.244Z,57.30
2022-07-25T13:17:26.978Z,55.50
2022-07-25T13:19:55.739Z,58.70
2022-07-25T13:22:23.675Z,57.50
2022-07-25T13:24:51.898Z,57.70
2022-07-25T13:27:20.357Z,57.30
2022-07-25T13:29:48.426Z,57.70
2022-07-25T13:32:16.494Z,58.30
2022-07-25T13:34:44.367Z,57.20
2022-07-25T13:37:12.237Z,56.60
2022-07-25T13:39:40.754Z,57.00
2022-07-25T13:42:08.874Z,56.00
2022-07-25T13:44:37.351Z,55.20
2022-07-25T13:47:05.241Z,54.80
2022-07-25T13:49:33.201Z,56.00
2022-07-25T13:52:01.066Z,56.30
2022-07-25T13:54:28.909Z,55.10
2022-07-25T13:56:56.782Z,55.20
2022-07-25T13:59:24.701Z,55.20
2022-07-25T14:01:52.636Z,55.40
2022-07-25T14:04:20.491Z,55.50
2022-07-25T14:06:52.865Z,55.50
2022-07-25T14:09:21.413Z,55.70
2022-07-25T14:11:49.362Z,55.50
2022-07-25T14:14:17.318Z,56.40
2022-07-25T14:16:45.458Z,56.30
2022-07-25T14:19:13.657Z,56.90
2022-07-25T14:21:41.569Z,56.10
2022-07-25T14:24:09.570Z,56.00
2022-07-25T14:26:37.539Z,56.00
2022-07-25T14:29:05.977Z,55.80
2022-07-25T14:31:34.137Z,54.90
2022-07-25T14:34:02.023Z,55.70
2022-07-25T14:36:29.923Z,55.50
2022-07-25T14:38:57.817Z,56.70
2022-07-25T14:41:26.630Z,55.90
2022-07-25T14:43:54.496Z,55.90
2022-07-25T14:46:22.739Z,56.20
2022-07-25T14:48:50.710Z,57.00
2022-07-25T14:51:26.272Z,58.00
2022-07-25T14:53:57.612Z,58.90
2022-07-25T14:56:25.590Z,58.70
2022-07-25T14:58:53.471Z,60.10
2022-07-25T15:01:24.631Z,60.40
2022-07-25T15:03:53.454Z,61.30
2022-07-25T15:06:24.614Z,62.00
2022-07-25T15:08:56.593Z,61.00
2022-07-25T15:11:24.931Z,62.00
2022-07-25T15:13:54.052Z,62.50
2022-07-25T15:16:22.210Z,61.50
2022-07-25T15:19:13.315Z,63.20
2022-07-25T15:21:38.631Z,62.90
2022-07-25T15:24:06.768Z,63.60
2022-07-25T15:26:34.744Z,63.80
2022-07-25T15:29:02.598Z,64.00
2022-07-25T15:31:30.645Z,64.30
2022-07-25T15:33:58.623Z,64.60
2022-07-25T15:36:29.607Z,65.30
2022-07-25T15:38:57.894Z,64.60
2022-07-25T15:41:25.851Z,63.80
2022-07-25T15:43:53.689Z,63.00
2022-07-25T15:46:21.578Z,62.90
2022-07-25T15:48:50.085Z,63.50
2022-07-25T15:51:18.088Z,63.70
2022-07-25T15:53:46.194Z,64.10
2022-07-25T15:56:19.881Z,65.10
2022-07-25T15:58:50.836Z,65.20
2022-07-25T16:01:20.887Z,65.00
2022-07-25T16:03:48.885Z,65.60
2022-07-25T16:06:21.574Z,66.20
2022-07-25T16:08:49.690Z,66.40
2022-07-25T16:11:24.778Z,66.10
2022-07-25T16:13:52.636Z,66.30
2022-07-25T16:16:23.099Z,64.80
2022-07-25T16:18:50.999Z,64.00
2022-07-25T16:21:19.206Z,64.20
2022-07-25T16:23:47.054Z,64.60
2022-07-25T16:26:14.971Z,65.30
2022-07-25T16:28:42.959Z,66.70
2022-07-25T16:31:11.082Z,68.70
2022-07-25T16:33:40.151Z,70.30
2022-07-25T16:36:12.228Z,70.70
2022-07-25T16:38:40.483Z,70.70
2022-07-25T16:41:08.510Z,70.60
2022-07-25T16:43:36.492Z,70.20
2022-07-25T16:46:04.664Z,70.60
2022-07-25T16:48:32.663Z,69.00
2022-07-25T16:51:00.668Z,68.10
2022-07-25T16:53:28.682Z,68.70
2022-07-25T16:55:56.785Z,68.90
2022-07-25T16:58:29.613Z,68.70
2022-07-25T17:00:57.559Z,68.20
2022-07-25T17:03:25.419Z,67.20
2022-07-25T17:05:58.165Z,66.80
2022-07-25T17:08:27.409Z,67.60
2022-07-25T17:10:56.334Z,67.30
2022-07-25T17:13:31.743Z,67.40
2022-07-25T17:16:02.837Z,67.60
2022-07-25T17:18:33.119Z,67.40
2022-07-25T17:21:00.987Z,67.80
2022-07-25T17:23:28.921Z,68.40
2022-07-25T17:25:57.056Z,68.80
2022-07-25T17:28:25.370Z,69.20
2022-07-25T17:30:53.394Z,70.30
2022-07-25T17:33:21.331Z,70.00
2022-07-25T17:35:49.136Z,70.50
2022-07-25T17:38:18.408Z,70.50
2022-07-25T17:40:47.911Z,70.60
2022-07-25T17:43:15.718Z,70.30
2022-07-25T17:45:43.779Z,70.70
2022-07-25T17:48:11.583Z,71.00
2022-07-25T17:50:39.484Z,71.20
2022-07-25T17:53:07.283Z,71.60
2022-07-25T17:55:38.718Z,72.30
2022-07-25T17:58:07.411Z,72.20
2022-07-25T18:00:35.309Z,72.30
2022-07-25T18:03:06.548Z,72.20
2022-07-25T18:05:34.601Z,72.70
2022-07-25T18:08:03.832Z,73.00
2022-07-25T18:10:31.813Z,72.70
2022-07-25T18:13:01.868Z,73.20
2022-07-25T18:15:29.943Z,73.60
2022-07-25T18:17:57.850Z,73.90
2022-07-25T18:20:26.024Z,74.00
2022-07-25T18:22:53.855Z,74.10
2022-07-25T18:25:21.725Z,74.20
2022-07-25T18:27:49.586Z,74.40
2022-07-25T18:30:17.961Z,74.90
2022-07-25T18:32:46.736Z,75.00
2022-07-25T18:35:14.801Z,75.20
2022-07-25T18:37:43.465Z,75.10
2022-07-25T18:40:11.654Z,75.70
2022-07-25T18:42:39.574Z,75.70
2022-07-25T18:45:07.694Z,76.20
2022-07-25T18:47:36.138Z,76.30
2022-07-25T18:50:04.795Z,76.50
2022-07-25T18:52:36.149Z,76.90
2022-07-25T18:55:05.575Z,77.20
2022-07-25T18:57:36.029Z,77.10
2022-07-25T19:00:04.029Z,77.50
2022-07-25T19:02:35.180Z,77.50
2022-07-25T19:05:06.389Z,78.00
2022-07-25T19:07:34.755Z,78.20
2022-07-25T19:10:02.989Z,78.30
2022-07-25T19:12:30.891Z,78.80
2022-07-25T19:14:58.858Z,79.10
2022-07-25T19:17:27.122Z,79.10
2022-07-25T19:19:54.968Z,79.50
2022-07-25T19:22:23.180Z,79.70
2022-07-25T19:24:51.098Z,79.90
2022-07-25T19:27:20.010Z,80.10
2022-07-25T19:29:47.910Z,80.60
2022-07-25T19:32:16.142Z,80.70
2022-07-25T19:34:46.052Z,80.90
2022-07-25T19:37:13.881Z,81.90
2022-07-25T19:39:41.715Z,81.40
2022-07-25T19:42:10.970Z,82.10
2022-07-25T19:44:38.869Z,82.40
2022-07-25T19:47:11.264Z,83.00
2022-07-25T19:49:41.113Z,82.90
2022-07-25T19:52:10.008Z,83.40
2022-07-25T19:54:38.462Z,83.30
2022-07-25T19:57:06.371Z,83.90
2022-07-25T19:59:34.260Z,84.30
2022-07-25T20:02:02.619Z,84.20
2022-07-25T20:04:30.689Z,84.70
2022-07-25T20:07:00.665Z,85.60
2022-07-25T20:09:28.751Z,85.20
2022-07-25T20:11:57.706Z,84.70
2022-07-25T20:14:25.551Z,83.90
2022-07-25T20:16:53.421Z,84.20
2022-07-25T20:19:21.318Z,83.60
2022-07-25T20:21:49.839Z,84.00
2022-07-25T20:24:21.299Z,83.20
2022-07-25T20:26:50.254Z,82.50
2022-07-25T20:29:18.247Z,81.20
2022-07-25T20:31:46.447Z,81.30
2022-07-25T20:34:14.608Z,81.50
2022-07-25T20:36:43.261Z,80.90
2022-07-25T20:39:11.304Z,81.00
2022-07-25T20:41:39.395Z,81.20
2022-07-25T20:44:07.365Z,81.40
2022-07-25T20:46:36.969Z,81.50
2022-07-25T20:49:10.014Z,81.70
2022-07-25T20:51:38.960Z,81.40
2022-07-25T20:54:07.221Z,81.20
2022-07-25T20:56:35.234Z,81.00
2022-07-25T20:59:03.156Z,80.80
2022-07-25T21:01:31.922Z,80.20
2022-07-25T21:04:03.160Z,80.90
2022-07-25T21:06:33.776Z,80.00
2022-07-25T21:09:01.912Z,81.00
2022-07-25T21:11:29.842Z,80.10
2022-07-25T21:13:58.031Z,80.40
2022-07-25T21:16:28.230Z,80.70
2022-07-25T21:18:58.195Z,81.50
2022-07-25T21:21:26.562Z,81.60
2022-07-25T21:23:54.454Z,82.60
2022-07-25T21:26:22.459Z,82.60
2022-07-25T21:28:50.370Z,82.80
2022-07-25T21:31:18.614Z,83.20
2022-07-25T21:33:46.511Z,84.60
2022-07-25T21:36:14.408Z,87.30
2022-07-25T21:38:42.220Z,90.10
2022-07-25T21:41:10.355Z,89.80
2022-07-25T21:43:38.378Z,90.40
2022-07-25T21:46:06.363Z,90.80
2022-07-25T21:48:54.317Z,91.20
2022-07-25T21:51:23.332Z,91.60
2022-07-25T21:53:52.728Z,91.80
2022-07-25T21:56:20.717Z,91.90
2022-07-25T21:58:48.611Z,92.20
2022-07-25T22:01:16.731Z,92.60
2022-07-25T22:03:44.778Z,93.10
2022-07-25T22:06:12.855Z,92.80
2022-07-25T22:08:43.426Z,93.10
2022-07-25T22:11:35.765Z,93.40
2022-07-25T22:14:02.587Z,93.40
2022-07-25T22:16:30.530Z,93.80
2022-07-25T22:18:58.498Z,93.80
2022-07-25T22:21:26.416Z,94.10
2022-07-25T22:23:54.447Z,94.10
2022-07-25T22:26:22.449Z,94.40
2022-07-25T22:28:50.515Z,94.40
2022-07-25T22:31:18.539Z,94.60
2022-07-25T22:33:46.452Z,94.70
2022-07-25T22:36:14.380Z,95.20
2022-07-25T22:38:43.905Z,94.90
2022-07-25T22:41:12.296Z,95.00
2022-07-25T22:43:48.681Z,95.10
2022-07-25T22:46:27.838Z,95.40
2022-07-25T22:48:55.885Z,95.40
2022-07-25T22:51:24.808Z,95.70
2022-07-25T22:53:52.726Z,95.80
2022-07-25T22:56:20.603Z,96.10
2022-07-25T22:58:49.140Z,95.90
2022-07-25T23:01:20.832Z,96.10
2022-07-25T23:03:52.898Z,96.20
2022-07-25T23:06:23.792Z,96.40
2022-07-25T23:08:51.819Z,96.40
2022-07-25T23:11:20.192Z,96.60
2022-07-25T23:13:48.069Z,97.00
2022-07-25T23:16:16.028Z,96.80
2022-07-25T23:18:43.944Z,97.10
2022-07-25T23:21:11.793Z,97.30
2022-07-25T23:23:39.622Z,97.20
2022-07-25T23:26:07.447Z,97.30
2022-07-25T23:28:35.303Z,97.30
2022-07-25T23:31:03.107Z,97.30
2022-07-25T23:33:31.002Z,97.50
2022-07-25T23:35:58.858Z,97.70
2022-07-25T23:38:26.736Z,97.70
2022-07-25T23:40:55.937Z,97.90
2022-07-25T23:43:55.979Z,97.90
2022-07-25T23:46:11.717Z,98.00
2022-07-25T23:48:39.846Z,98.10
2022-07-25T23:51:07.816Z,98.10
2022-07-25T23:53:36.405Z,98.40
2022-07-25T23:56:04.393Z,98.60
2022-07-25T23:58:32.261Z,98.80
